createdAt,value
2022-08-01T00:00:09.070Z,19.63
2022-08-01T00:02:39.054Z,19.64
2022-08-01T00:05:07.075Z,19.13
2022-08-01T00:07:37.947Z,19.16
2022-08-01T00:10:06.351Z,19.07
2022-08-01T00:12:33.596Z,19.08
2022-08-01T00:15:01.026Z,19.23
2022-08-01T00:17:28.553Z,19.17
2022-08-01T00:19:55.735Z,19.39
2022-08-01T00:22:22.936Z,19.55
2022-08-01T00:24:50.482Z,19.55
2022-08-01T00:27:17.639Z,19.63
2022-08-01T00:30:04.725Z,19.52
2022-08-01T00:32:33.249Z,19.29
2022-08-01T00:35:00.407Z,19.07
2022-08-01T00:37:27.575Z,18.81
2022-08-01T00:39:55.049Z,18.53
2022-08-01T00:42:22.219Z,18.74
2022-08-01T00:44:49.452Z,18.61
2022-08-01T00:47:16.973Z,18.68
2022-08-01T00:49:44.136Z,18.80
2022-08-01T00:52:11.326Z,19.00
2022-08-01T00:54:38.809Z,19.16
2022-08-01T00:57:10.036Z,19.20
2022-08-01T00:59:38.040Z,19.20
2022-08-01T01:02:15.305Z,18.99
2022-08-01T01:04:43.628Z,19.12
2022-08-01T01:07:14.834Z,18.97
2022-08-01T01:09:41.943Z,18.98
2022-08-01T01:12:12.264Z,18.78
2022-08-01T01:14:47.177Z,18.86
2022-08-01T01:17:17.920Z,19.20
2022-08-01T01:20:05.609Z,19.21
2022-08-01T01:22:38.520Z,19.05
2022-08-01T01:25:10.949Z,19.07
2022-08-01T01:27:44.372Z,18.98
2022-08-01T01:30:11.906Z,18.76
2022-08-01T01:32:58.128Z,18.40
2022-08-01T01:35:26.157Z,18.43
2022-08-01T01:37:57.402Z,18.29
2022-08-01T01:40:24.821Z,18.44
2022-08-01T01:42:52.759Z,18.73
2022-08-01T01:45:19.944Z,18.87
2022-08-01T01:47:47.137Z,18.54
2022-08-01T01:50:14.607Z,18.65
2022-08-01T01:52:41.876Z,18.44
2022-08-01T01:55:09.398Z,18.81
2022-08-01T01:57:37.409Z,18.85
2022-08-01T02:00:06.962Z,18.77
2022-08-01T02:02:35.097Z,18.89
2022-08-01T02:05:03.023Z,18.59
2022-08-01T02:07:30.251Z,18.66
2022-08-01T02:09:57.422Z,18.76
2022-08-01T02:12:25.413Z,18.86
2022-08-01T02:14:53.592Z,18.84
2022-08-01T02:17:21.124Z,18.81
2022-08-01T02:19:48.590Z,18.69
2022-08-01T02:22:18.082Z,18.85
2022-08-01T02:24:56.597Z,18.99
2022-08-01T02:27:26.037Z,18.73
2022-08-01T02:29:53.180Z,18.80
2022-08-01T02:32:24.923Z,18.51
2022-08-01T02:34:52.438Z,18.45
2022-08-01T02:37:19.755Z,18.22
2022-08-01T02:39:47.613Z,18.17
2022-08-01T02:42:15.074Z,18.45
2022-08-01T02:44:42.801Z,17.94
2022-08-01T02:47:11.298Z,18.18
2022-08-01T02:49:40.175Z,18.20
2022-08-01T02:52:09.428Z,18.22
2022-08-01T02:54:36.903Z,18.37
2022-08-01T02:57:04.749Z,18.44
2022-08-01T02:59:33.890Z,18.48
2022-08-01T03:02:01.328Z,18.40
2022-08-01T03:04:30.713Z,18.42
2022-08-01T03:06:59.558Z,18.22
2022-08-01T03:09:27.505Z,18.33
2022-08-01T03:11:55.027Z,18.40
2022-08-01T03:14:22.239Z,18.53
2022-08-01T03:16:50.157Z,18.82
2022-08-01T03:19:17.621Z,18.75
2022-08-01T03:21:44.845Z,18.87
2022-08-01T03:24:12.098Z,18.80
2022-08-01T03:26:39.714Z,18.99
2022-08-01T03:29:07.476Z,18.86
2022-08-01T03:31:39.165Z,18.67
2022-08-01T03:34:06.688Z,18.73
2022-08-01T03:36:34.722Z,18.47
2022-08-01T03:39:02.407Z,18.08
2022-08-01T03:41:30.796Z,18.40
2022-08-01T03:44:05.213Z,18.41
2022-08-01T03:46:46.438Z,18.58
2022-08-01T03:49:18.542Z,18.48
2022-08-01T03:51:46.495Z,18.51
2022-08-01T03:54:13.666Z,18.51
2022-08-01T03:56:40.845Z,18.47
2022-08-01T03:59:08.478Z,18.46
2022-08-01T04:01:35.845Z,18.69
2022-08-01T04:04:06.076Z,18.85
2022-08-01T04:06:33.290Z,18.79
2022-08-01T04:09:00.584Z,18.68
2022-08-01T04:11:28.756Z,18.86
2022-08-01T04:13:56.112Z,18.84
2022-08-01T04:16:24.983Z,18.91
2022-08-01T04:18:52.685Z,19.11
2022-08-01T04:21:22.812Z,19.23
2022-08-01T04:23:51.641Z,19.33
2022-08-01T04:26:21.067Z,19.31
2022-08-01T04:28:48.295Z,19.50
2022-08-01T04:31:15.475Z,19.50
2022-08-01T04:33:43.705Z,19.90
2022-08-01T04:36:11.022Z,19.79
2022-08-01T04:38:38.212Z,19.95
2022-08-01T04:41:09.004Z,20.33
2022-08-01T04:43:39.829Z,20.47
2022-08-01T04:46:07.981Z,20.43
2022-08-01T04:48:35.870Z,20.71
2022-08-01T04:51:03.022Z,20.54
2022-08-01T04:53:33.404Z,20.83
2022-08-01T04:56:01.605Z,20.92
2022-08-01T04:58:28.777Z,20.56
2022-08-01T05:00:56.323Z,20.65
2022-08-01T05:03:23.532Z,20.68
2022-08-01T05:05:50.711Z,20.94
2022-08-01T05:08:18.149Z,21.12
2022-08-01T05:10:45.342Z,20.94
2022-08-01T05:13:12.508Z,21.27
2022-08-01T05:15:39.941Z,21.48
2022-08-01T05:18:08.794Z,21.40
2022-08-01T05:20:38.011Z,21.46
2022-08-01T05:23:06.082Z,21.63
2022-08-01T05:25:56.045Z,21.56
2022-08-01T05:28:20.727Z,21.63
2022-08-01T05:30:47.937Z,21.82
2022-08-01T05:33:15.134Z,21.61
2022-08-01T05:35:48.065Z,21.76
2022-08-01T05:38:16.671Z,21.81
2022-08-01T05:40:44.124Z,21.76
2022-08-01T05:43:11.379Z,22.03
2022-08-01T05:45:38.560Z,21.74
2022-08-01T05:48:06.026Z,22.11
2022-08-01T05:50:33.554Z,22.27
2022-08-01T05:53:00.758Z,22.40
2022-08-01T05:55:28.220Z,22.44
2022-08-01T05:57:55.381Z,22.33
2022-08-01T06:00:22.593Z,22.37
2022-08-01T06:02:50.055Z,22.39
2022-08-01T06:05:17.255Z,22.72
2022-08-01T06:07:44.473Z,22.16
2022-08-01T06:10:11.960Z,22.34
2022-08-01T06:12:39.177Z,22.66
2022-08-01T06:15:06.657Z,22.57
2022-08-01T06:17:34.283Z,22.73
2022-08-01T06:20:01.468Z,22.78
2022-08-01T06:22:28.798Z,22.81
2022-08-01T06:24:56.378Z,22.90
2022-08-01T06:27:25.829Z,22.88
2022-08-01T06:29:55.992Z,22.83
2022-08-01T06:32:27.516Z,23.21
2022-08-01T06:34:55.395Z,23.19
2022-08-01T06:37:22.783Z,23.41
2022-08-01T06:39:50.785Z,23.20
2022-08-01T06:42:18.613Z,23.41
2022-08-01T06:44:46.180Z,23.81
2022-08-01T06:47:13.643Z,23.74
2022-08-01T06:49:40.853Z,23.75
2022-08-01T06:52:08.521Z,23.83
2022-08-01T06:54:36.318Z,24.22
2022-08-01T06:57:05.977Z,24.35
2022-08-01T06:59:33.231Z,24.62
2022-08-01T07:02:02.046Z,24.56
2022-08-01T07:04:29.230Z,24.73
2022-08-01T07:06:56.522Z,24.77
2022-08-01T07:09:24.019Z,24.86
2022-08-01T07:11:53.348Z,24.76
2022-08-01T07:14:21.238Z,24.97
2022-08-01T07:16:48.798Z,24.91
2022-08-01T07:19:15.991Z,24.84
2022-08-01T07:21:43.311Z,24.95
2022-08-01T07:24:14.584Z,25.24
2022-08-01T07:26:52.318Z,25.34
2022-08-01T07:29:25.122Z,24.98
2022-08-01T07:31:55.976Z,25.10
2022-08-01T07:34:24.084Z,25.10
2022-08-01T07:36:51.631Z,25.24
2022-08-01T07:39:18.817Z,25.49
2022-08-01T07:42:04.773Z,25.66
2022-08-01T07:44:33.505Z,25.73
2022-08-01T07:47:01.285Z,26.04
2022-08-01T07:49:28.658Z,25.88
2022-08-01T07:52:03.391Z,25.87
2022-08-01T07:54:33.417Z,26.04
2022-08-01T07:57:02.130Z,26.06
2022-08-01T07:59:29.311Z,25.83
2022-08-01T08:01:56.849Z,26.28
2022-08-01T08:04:24.392Z,26.25
2022-08-01T08:06:51.872Z,26.16
2022-08-01T08:09:19.089Z,26.04
2022-08-01T08:11:48.136Z,26.35
2022-08-01T08:14:16.106Z,26.32
2022-08-01T08:16:43.729Z,26.43
2022-08-01T08:19:11.294Z,26.46
2022-08-01T08:21:38.869Z,26.34
2022-08-01T08:24:26.632Z,26.26
2022-08-01T08:26:59.452Z,26.46
2022-08-01T08:29:27.500Z,26.43
2022-08-01T08:31:56.933Z,26.41
2022-08-01T08:34:24.496Z,26.63
2022-08-01T08:36:51.703Z,26.33
2022-08-01T08:39:20.060Z,26.04
2022-08-01T08:41:49.453Z,26.10
2022-08-01T08:44:17.389Z,26.49
2022-08-01T08:46:46.314Z,25.84
2022-08-01T08:49:15.297Z,26.47
2022-08-01T08:51:42.705Z,26.24
2022-08-01T08:54:11.823Z,26.25
2022-08-01T08:56:39.519Z,26.22
2022-08-01T08:59:06.741Z,26.04
2022-08-01T09:01:34.591Z,26.38
2022-08-01T09:04:02.845Z,26.55
2022-08-01T09:06:30.858Z,26.39
2022-08-01T09:08:58.449Z,26.35
2022-08-01T09:11:25.664Z,26.30
2022-08-01T09:14:04.835Z,26.71
2022-08-01T09:16:32.900Z,26.82
2022-08-01T09:19:39.471Z,26.58
2022-08-01T09:22:11.691Z,26.36
2022-08-01T09:24:40.338Z,26.98
2022-08-01T09:27:22.147Z,26.74
2022-08-01T09:30:00.662Z,26.99
2022-08-01T09:32:35.990Z,27.11
2022-08-01T09:35:22.348Z,27.02
2022-08-01T09:37:49.798Z,26.93
2022-08-01T09:40:35.536Z,26.97
2022-08-01T09:43:15.063Z,27.21
2022-08-01T09:45:45.645Z,27.31
2022-08-01T09:48:13.568Z,27.39
2022-08-01T09:50:42.294Z,27.50
2022-08-01T09:53:10.101Z,27.43
2022-08-01T09:55:55.522Z,27.51
2022-08-01T09:58:22.697Z,27.41
2022-08-01T10:01:04.099Z,27.27
2022-08-01T10:03:31.622Z,27.24
2022-08-01T10:05:59.543Z,27.68
2022-08-01T10:08:27.518Z,27.92
2022-08-01T10:11:06.435Z,28.02
2022-08-01T10:13:36.383Z,27.80
2022-08-01T10:16:04.702Z,28.15
2022-08-01T10:18:34.236Z,27.95
2022-08-01T10:21:01.938Z,28.34
2022-08-01T10:23:40.722Z,28.30
2022-08-01T10:26:08.993Z,27.86
2022-08-01T10:28:39.250Z,28.37
2022-08-01T10:31:13.195Z,28.09
2022-08-01T10:33:52.417Z,28.63
2022-08-01T10:36:25.376Z,28.26
2022-08-01T10:38:56.750Z,28.78
2022-08-01T10:41:24.409Z,28.92
2022-08-01T10:43:52.688Z,28.76
2022-08-01T10:46:20.550Z,28.51
2022-08-01T10:48:52.219Z,28.12
2022-08-01T10:51:21.430Z,28.21
2022-08-01T10:53:49.478Z,28.28
2022-08-01T10:56:18.253Z,28.48
2022-08-01T10:58:45.911Z,28.54
2022-08-01T11:01:16.310Z,28.97
2022-08-01T11:04:01.353Z,28.78
2022-08-01T11:06:29.206Z,29.04
2022-08-01T11:08:57.727Z,28.78
2022-08-01T11:11:28.837Z,28.97
2022-08-01T11:14:08.090Z,28.23
2022-08-01T11:16:37.121Z,28.42
2022-08-01T11:19:05.046Z,28.87
2022-08-01T11:21:58.063Z,28.80
2022-08-01T11:24:46.130Z,29.16
2022-08-01T11:27:23.524Z,28.57
2022-08-01T11:30:09.591Z,29.40
2022-08-01T11:33:06.904Z,29.42
2022-08-01T11:35:35.844Z,29.07
2022-08-01T11:38:21.873Z,29.31
2022-08-01T11:40:49.354Z,28.97
2022-08-01T11:43:17.938Z,29.04
2022-08-01T11:45:48.100Z,28.83
2022-08-01T11:48:19.078Z,29.30
2022-08-01T11:50:46.274Z,28.72
2022-08-01T11:53:15.627Z,29.01
2022-08-01T11:55:55.766Z,29.17
2022-08-01T11:58:27.742Z,28.97
2022-08-01T12:00:58.536Z,29.49
2022-08-01T12:03:33.486Z,29.55
2022-08-01T12:06:01.300Z,29.48
2022-08-01T12:08:29.589Z,29.24
2022-08-01T12:11:02.023Z,29.67
2022-08-01T12:13:40.077Z,29.29
2022-08-01T12:16:10.680Z,29.81
2022-08-01T12:18:41.554Z,29.51
2022-08-01T12:21:08.781Z,29.47
2022-08-01T12:23:35.975Z,29.08
2022-08-01T12:26:05.040Z,29.42
2022-08-01T12:28:39.464Z,29.37
2022-08-01T12:31:06.901Z,29.59
2022-08-01T12:33:35.258Z,29.28
2022-08-01T12:36:02.495Z,29.82
2022-08-01T12:38:31.118Z,29.80
2022-08-01T12:40:58.297Z,30.16
2022-08-01T12:43:28.711Z,30.11
2022-08-01T12:45:58.002Z,30.04
2022-08-01T12:48:25.773Z,30.39
2022-08-01T12:50:58.456Z,30.35
2022-08-01T12:53:27.000Z,30.44
2022-08-01T12:56:07.258Z,30.62
2022-08-01T12:58:34.855Z,31.01
2022-08-01T13:01:06.034Z,31.14
2022-08-01T13:03:33.271Z,30.60
2022-08-01T13:06:01.785Z,31.14
2022-08-01T13:08:33.123Z,31.35
2022-08-01T13:11:05.738Z,31.75
2022-08-01T13:13:38.854Z,31.49
2022-08-01T13:16:06.540Z,31.58
2022-08-01T13:18:34.784Z,30.52
2022-08-01T13:21:09.417Z,31.01
2022-08-01T13:24:01.954Z,31.29
2022-08-01T13:26:38.207Z,31.67
2022-08-01T13:29:06.493Z,31.84
2022-08-01T13:31:34.440Z,31.86
2022-08-01T13:34:01.698Z,31.69
2022-08-01T13:36:29.633Z,30.96
2022-08-01T13:39:15.497Z,30.93
2022-08-01T13:41:43.191Z,30.93
2022-08-01T13:44:11.539Z,31.01
2022-08-01T13:46:39.381Z,30.64
2022-08-01T13:49:17.513Z,30.91
2022-08-01T13:51:47.488Z,30.75
2022-08-01T13:54:14.935Z,31.00
2022-08-01T13:56:42.756Z,31.18
2022-08-01T13:59:09.928Z,30.49
2022-08-01T14:01:37.201Z,31.21
2022-08-01T14:04:04.789Z,29.93
2022-08-01T14:06:32.400Z,29.70
2022-08-01T14:08:59.594Z,30.76
2022-08-01T14:11:30.577Z,30.82
2022-08-01T14:14:04.799Z,31.12
2022-08-01T14:16:35.904Z,31.11
2022-08-01T14:19:04.116Z,31.52
2022-08-01T14:21:32.350Z,31.70
2022-08-01T14:23:59.824Z,31.97
2022-08-01T14:26:27.038Z,32.35
2022-08-01T14:28:54.325Z,31.97
2022-08-01T14:31:21.783Z,31.45
2022-08-01T14:33:48.950Z,31.59
2022-08-01T14:36:29.583Z,31.74
2022-08-01T14:39:00.038Z,31.87
2022-08-01T14:41:31.330Z,31.50
2022-08-01T14:44:00.646Z,31.27
2022-08-01T14:46:27.870Z,31.11
2022-08-01T14:48:55.445Z,30.90
2022-08-01T14:51:22.983Z,31.09
2022-08-01T14:53:52.272Z,31.31
2022-08-01T14:56:20.568Z,31.22
2022-08-01T14:58:48.689Z,31.11
2022-08-01T15:01:16.175Z,31.38
2022-08-01T15:03:43.630Z,31.54
2022-08-01T15:06:12.475Z,31.12
2022-08-01T15:08:39.721Z,31.02
2022-08-01T15:11:07.018Z,30.73
2022-08-01T15:13:37.094Z,30.98
2022-08-01T15:16:06.528Z,31.08
2022-08-01T15:18:34.841Z,30.98
2022-08-01T15:21:02.267Z,30.92
2022-08-01T15:23:29.758Z,31.00
2022-08-01T15:25:57.190Z,31.31
2022-08-01T15:28:24.391Z,31.27
2022-08-01T15:30:51.552Z,31.24
2022-08-01T15:33:19.046Z,31.34
2022-08-01T15:35:46.247Z,31.09
2022-08-01T15:38:13.433Z,31.36
2022-08-01T15:40:40.933Z,31.52
2022-08-01T15:43:08.196Z,31.32
2022-08-01T15:45:49.809Z,31.31
2022-08-01T15:48:17.168Z,31.39
2022-08-01T15:50:44.688Z,30.87
2022-08-01T15:53:11.937Z,30.76
2022-08-01T15:55:39.790Z,30.56
2022-08-01T15:58:07.619Z,30.66
2022-08-01T16:00:38.877Z,30.75
2022-08-01T16:03:07.878Z,31.20
2022-08-01T16:05:42.515Z,31.00
2022-08-01T16:08:12.100Z,31.23
2022-08-01T16:10:39.438Z,31.36
2022-08-01T16:13:07.570Z,31.33
2022-08-01T16:15:39.084Z,31.47
2022-08-01T16:18:07.452Z,31.13
2022-08-01T16:20:35.169Z,31.05
2022-08-01T16:23:02.355Z,30.84
2022-08-01T16:25:29.515Z,31.09
2022-08-01T16:27:57.034Z,31.22
2022-08-01T16:30:24.250Z,31.20
2022-08-01T16:32:54.245Z,31.25
2022-08-01T16:35:31.979Z,30.26
2022-08-01T16:38:04.558Z,30.77
2022-08-01T16:40:46.289Z,30.29
2022-08-01T16:43:14.475Z,30.65
2022-08-01T16:45:43.205Z,30.83
2022-08-01T16:48:12.242Z,30.84
2022-08-01T16:50:39.664Z,30.45
2022-08-01T16:53:07.129Z,30.19
2022-08-01T16:55:50.392Z,30.28
2022-08-01T16:58:27.847Z,30.40
2022-08-01T17:00:56.671Z,30.00
2022-08-01T17:03:46.766Z,29.95
2022-08-01T17:06:15.341Z,29.46
2022-08-01T17:08:47.041Z,30.08
2022-08-01T17:11:15.037Z,29.99
2022-08-01T17:13:42.863Z,29.95
2022-08-01T17:16:10.460Z,30.02
2022-08-01T17:18:37.679Z,30.17
2022-08-01T17:21:04.906Z,30.20
2022-08-01T17:23:32.430Z,29.88
2022-08-01T17:25:59.632Z,29.99
2022-08-01T17:28:27.070Z,30.19
2022-08-01T17:30:54.652Z,29.96
2022-08-01T17:33:22.025Z,29.94
2022-08-01T17:35:49.275Z,30.10
2022-08-01T17:38:17.055Z,30.05
2022-08-01T17:40:44.308Z,29.75
2022-08-01T17:43:11.560Z,29.71
2022-08-01T17:45:50.898Z,29.97
2022-08-01T17:48:19.234Z,29.96
2022-08-01T17:50:47.075Z,29.86
2022-08-01T17:53:14.771Z,29.93
2022-08-01T17:55:54.000Z,29.85
2022-08-01T17:58:50.199Z,29.86
2022-08-01T18:01:12.583Z,29.68
2022-08-01T18:03:40.856Z,29.61
2022-08-01T18:06:09.258Z,29.40
2022-08-01T18:08:36.455Z,29.52
2022-08-01T18:11:03.969Z,29.58
2022-08-01T18:13:31.170Z,29.25
2022-08-01T18:15:58.512Z,28.91
2022-08-01T18:18:33.670Z,28.96
2022-08-01T18:21:01.729Z,29.05
2022-08-01T18:23:29.161Z,28.68
2022-08-01T18:25:56.489Z,28.53
2022-08-01T18:28:31.686Z,28.40
2022-08-01T18:31:02.832Z,28.48
2022-08-01T18:33:30.074Z,28.24
2022-08-01T18:36:01.756Z,28.25
2022-08-01T18:38:32.900Z,28.05
2022-08-01T18:41:00.857Z,27.87
2022-08-01T18:43:28.128Z,27.89
2022-08-01T18:45:58.566Z,27.81
2022-08-01T18:48:25.736Z,27.65
2022-08-01T18:50:54.059Z,27.77
2022-08-01T18:53:23.874Z,27.96
2022-08-01T18:55:51.199Z,28.03
2022-08-01T18:58:18.602Z,28.15
2022-08-01T19:00:46.090Z,27.96
2022-08-01T19:03:15.357Z,28.12
2022-08-01T19:05:43.074Z,27.92
2022-08-01T19:08:11.587Z,27.65
2022-08-01T19:10:39.246Z,27.46
2022-08-01T19:13:07.816Z,27.33
2022-08-01T19:15:35.508Z,27.44
2022-08-01T19:18:03.262Z,27.47
2022-08-01T19:20:30.722Z,27.60
2022-08-01T19:22:58.389Z,27.63
2022-08-01T19:25:25.577Z,27.36
2022-08-01T19:27:52.745Z,27.08
2022-08-01T19:30:20.221Z,27.16
2022-08-01T19:32:47.599Z,27.01
2022-08-01T19:35:16.899Z,27.03
2022-08-01T19:37:47.267Z,26.75
2022-08-01T19:40:27.436Z,26.84
2022-08-01T19:42:56.427Z,26.94
2022-08-01T19:45:24.661Z,26.88
2022-08-01T19:47:56.679Z,26.68
2022-08-01T19:50:26.220Z,26.66
2022-08-01T19:52:54.906Z,26.61
2022-08-01T19:55:23.318Z,26.43
2022-08-01T19:58:24.163Z,26.64
2022-08-01T20:00:39.762Z,26.69
2022-08-01T20:03:07.604Z,26.66
2022-08-01T20:05:36.440Z,26.67
2022-08-01T20:08:03.749Z,26.65
2022-08-01T20:10:31.839Z,26.66
2022-08-01T20:12:59.028Z,26.55
2022-08-01T20:15:26.207Z,26.23
2022-08-01T20:17:54.485Z,26.41
2022-08-01T20:20:21.817Z,26.12
2022-08-01T20:22:49.050Z,26.21
2022-08-01T20:25:17.540Z,26.21
2022-08-01T20:27:44.748Z,26.09
2022-08-01T20:30:12.068Z,26.02
2022-08-01T20:32:40.336Z,25.80
2022-08-01T20:35:07.811Z,25.40
2022-08-01T20:38:05.903Z,25.78
2022-08-01T20:40:26.827Z,25.93
2022-08-01T20:42:54.244Z,26.08
2022-08-01T20:45:21.885Z,26.05
2022-08-01T20:47:50.315Z,25.98
2022-08-01T20:50:53.720Z,26.17
2022-08-01T20:53:26.085Z,26.01
2022-08-01T20:55:59.248Z,25.97
2022-08-01T20:58:33.596Z,26.09
2022-08-01T21:01:01.085Z,25.98
2022-08-01T21:03:30.578Z,25.96
2022-08-01T21:06:02.161Z,25.85
2022-08-01T21:08:35.682Z,25.91
2022-08-01T21:11:02.850Z,25.74
2022-08-01T21:13:50.656Z,25.66
2022-08-01T21:16:24.409Z,25.82
2022-08-01T21:19:19.041Z,25.93
2022-08-01T21:21:51.641Z,25.83
2022-08-01T21:24:19.477Z,25.75
2022-08-01T21:26:46.956Z,25.51
2022-08-01T21:29:14.322Z,25.38
2022-08-01T21:31:41.987Z,25.61
2022-08-01T21:34:09.617Z,25.75
2022-08-01T21:36:36.996Z,25.75
2022-08-01T21:39:05.728Z,25.84
2022-08-01T21:42:05.032Z,25.91
2022-08-01T21:44:20.400Z,25.89
2022-08-01T21:46:48.328Z,25.86
2022-08-01T21:49:15.633Z,25.92
2022-08-01T21:51:45.624Z,25.56
2022-08-01T21:54:24.693Z,25.30
2022-08-01T21:56:57.593Z,25.62
2022-08-01T21:59:46.924Z,25.59
2022-08-01T22:02:18.063Z,25.59
2022-08-01T22:04:48.576Z,25.48
2022-08-01T22:07:17.207Z,25.60
2022-08-01T22:09:45.221Z,25.61
2022-08-01T22:12:17.873Z,25.51
2022-08-01T22:14:46.736Z,25.34
2022-08-01T22:17:15.140Z,25.30
2022-08-01T22:19:46.302Z,25.52
2022-08-01T22:22:42.478Z,25.52
2022-08-01T22:25:02.364Z,25.46
2022-08-01T22:28:06.650Z,25.43
2022-08-01T22:30:17.707Z,25.37
2022-08-01T22:32:45.737Z,25.29
2022-08-01T22:35:32.933Z,25.05
2022-08-01T22:38:01.477Z,25.19
2022-08-01T22:40:28.829Z,25.29
2022-08-01T22:43:00.195Z,25.43
2022-08-01T22:45:37.792Z,25.50
2022-08-01T22:48:17.470Z,25.33
2022-08-01T22:50:46.546Z,25.37
2022-08-01T22:53:24.550Z,25.44
2022-08-01T22:55:58.440Z,25.51
2022-08-01T22:58:26.825Z,25.20
2022-08-01T23:00:54.753Z,25.27
2022-08-01T23:03:28.710Z,25.12
2022-08-01T23:05:56.895Z,25.11
2022-08-01T23:08:24.078Z,24.93
2022-08-01T23:10:51.259Z,24.91
2022-08-01T23:13:19.635Z,24.96
2022-08-01T23:15:52.417Z,24.98
2022-08-01T23:18:20.423Z,24.77
2022-08-01T23:20:47.648Z,24.90
2022-08-01T23:23:15.183Z,24.68
2022-08-01T23:25:43.285Z,24.71
2022-08-01T23:28:10.440Z,24.41
2022-08-01T23:30:37.616Z,24.26
2022-08-01T23:33:05.086Z,24.40
2022-08-01T23:35:38.841Z,24.15
2022-08-01T23:38:07.203Z,23.93
2022-08-01T23:40:34.714Z,24.05
2022-08-01T23:43:02.622Z,24.02
2022-08-01T23:45:38.183Z,24.23
2022-08-01T23:48:17.453Z,23.89
2022-08-01T23:50:44.917Z,24.05
2022-08-01T23:53:12.885Z,23.97
2022-08-01T23:55:40.644Z,23.86
2022-08-01T23:58:11.673Z,23.88
